Time;durP1;ratioP1;P1;durP2;ratioP2;P2;SDS_P1;SDS_P2;PMS_P1;PMS_P2;Temp;Humidity;BMP_temperature;BMP_pressure;BME280_temperature;BME280_humidity;BME280_pressure;Samples;Min_cycle;Max_cycle;Signal;HPM_P1;HPM_P2
2022/05/15 00:02:40;;;;;;;;;;;;;;;;;;5020178;28;1465;-65
2022/05/15 00:05:05;;;;;;;;;;;;;;;;;;5042026;28;1500;-65
2022/05/15 00:07:30;;;;;;;;;;;;;;;;;;5046274;28;1473;-65
2022/05/15 00:09:55;;;;;;;;;;;;;;;;;;5045568;28;1738;-65
2022/05/15 00:12:21;;;;;;;;;;;;;;;;;;5051437;28;1778;-65
2022/05/15 00:14:47;;;;;;;;;;;;;;;;;;5053308;28;1964;-64
2022/05/15 00:17:12;;;;;;;;;;;;;;;;;;5041819;28;1461;-65
2022/05/15 00:19:38;;;;;;;;;;;;;;;;;;5044262;28;1612;-66
2022/05/15 00:22:03;;;;;;;;;;;;;;;;;;5046065;28;1830;-66
2022/05/15 00:24:28;;;;;;;;;;;;;;;;;;5042339;28;1473;-66
2022/05/15 00:26:56;;;;;;;;;;;;;;;;;;5043281;28;1762;-66
2022/05/15 00:29:22;;;;;;;;;;;;;;;;;;5041591;28;1734;-66
2022/05/15 00:31:47;;;;;;;;;;;;;;;;;;5049129;28;1794;-66
2022/05/15 00:34:12;;;;;;;;;;;;;;;;;;5041336;28;1961;-66
2022/05/15 00:36:38;;;;;;;;;;;;;;;;;;5040679;28;1798;-65
2022/05/15 00:39:04;;;;;;;;;;;;;;;;;;5042159;28;1486;-66
2022/05/15 00:41:29;;;;;;;;;;;;;;;;;;5046127;28;1492;-66
2022/05/15 00:43:56;;;;;;;;;;;;;;;;;;5042671;28;1506;-66
2022/05/15 00:46:28;;;;;;;;;;;;;;;;;;5044655;28;2123;-66
2022/05/15 00:48:54;;;;;;;;;;;;;;;;;;5042000;28;1854;-66
2022/05/15 00:51:19;;;;;;;;;;;;;;;;;;5042111;28;1849;-66
2022/05/15 00:53:48;;;;;;;;;;;;;;;;;;5041948;28;1894;-66
2022/05/15 00:56:14;;;;;;;;;;;;;;;;;;5043117;28;1588;-66
2022/05/15 00:58:40;;;;;;;;;;;;;;;;;;5048720;28;1787;-64
2022/05/15 01:01:06;;;;;;;;;;;;;;;;;;5050007;28;1555;-64
2022/05/15 01:03:31;;;;;;;;;;;;;;;;;;5047183;28;1489;-65
2022/05/15 01:05:57;;;;;;;;;;;;;;;;;;5045132;28;1775;-64
2022/05/15 01:08:23;;;;;;;;;;;;;;;;;;5045387;28;1517;-65
2022/05/15 01:10:51;;;;;;;;;;;;;;;;;;5041131;28;1774;-65
2022/05/15 01:13:17;;;;;;;;;;;;;;;;;;5041967;28;2033;-64
2022/05/15 01:15:43;;;;;;;;;;;;;;;;;;5039402;28;1482;-64
2022/05/15 01:18:08;;;;;;;;;;;;;;;;;;5038809;28;1570;-65
2022/05/15 01:20:34;;;;;;;;;;;;;;;;;;5041589;28;1624;-65
2022/05/15 01:23:00;;;;;;;;;;;;;;;;;;5039567;28;1572;-65
2022/05/15 01:25:26;;;;;;;;;;;;;;;;;;5041878;28;1436;-65
2022/05/15 01:27:53;;;;;;;;;;;;;;;;;;5050532;28;1647;-66
2022/05/15 01:30:18;;;;;;;;;;;;;;;;;;5039990;28;1755;-65
2022/05/15 01:32:44;;;;;;;;;;;;;;;;;;5045666;28;1906;-65
2022/05/15 01:35:09;;;;;;;;;;;;;;;;;;5044548;28;1578;-65
2022/05/15 01:37:35;;;;;;;;;;;;;;;;;;5041431;28;1837;-65
2022/05/15 01:40:02;;;;;;;;;;;;;;;;;;5039975;28;1857;-65
2022/05/15 01:42:28;;;;;;;;;;;;;;;;;;5046876;28;1464;-65
2022/05/15 01:44:53;;;;;;;;;;;;;;;;;;5039591;28;1857;-66
2022/05/15 01:47:18;;;;;;;;;;;;;;;;;;5042528;28;1963;-65
2022/05/15 01:49:43;;;;;;;;;;;;;;;;;;5045652;28;1735;-65
2022/05/15 01:52:08;;;;;;;;;;;;;;;;;;5060066;28;1964;-65
2022/05/15 01:54:34;;;;;;;;;;;;;;;;;;5080242;28;1955;-65
2022/05/15 01:56:59;;;;;;;;;;;;;;;;;;5076297;28;1516;-64
2022/05/15 01:59:24;;;;;;;;;;;;;;;;;;5050682;28;1779;-65
2022/05/15 02:01:50;;;;;;;;;;;;;;;;;;5057041;28;1793;-64
2022/05/15 02:04:15;;;;;;;;;;;;;;;;;;5057005;28;1853;-65
2022/05/15 02:06:40;;;;;;;;;;;;;;;;;;5054764;28;1350;-65
2022/05/15 02:09:06;;;;;;;;;;;;;;;;;;5048514;28;1576;-65
2022/05/15 02:11:31;;;;;;;;;;;;;;;;;;5049771;28;1859;-65
2022/05/15 02:13:57;;;;;;;;;;;;;;;;;;5054620;28;1898;-65
2022/05/15 02:16:22;;;;;;;;;;;;;;;;;;5053401;28;1390;-64
2022/05/15 02:18:47;;;;;;;;;;;;;;;;;;5057129;28;1485;-65
2022/05/15 02:21:12;;;;;;;;;;;;;;;;;;5060122;28;1147;-66
2022/05/15 02:23:38;;;;;;;;;;;;;;;;;;5057424;28;1430;-66
2022/05/15 02:26:03;;;;;;;;;;;;;;;;;;5053702;28;1602;-65
2022/05/15 02:28:28;;;;;;;;;;;;;;;;;;5056454;28;1667;-65
2022/05/15 02:30:53;;;;;;;;;;;;;;;;;;5062074;28;1563;-65
2022/05/15 02:33:19;;;;;;;;;;;;;;;;;;5052339;28;1969;-65
2022/05/15 02:35:44;;;;;;;;;;;;;;;;;;5056728;28;1775;-65
2022/05/15 02:38:09;;;;;;;;;;;;;;;;;;5059969;28;1548;-65
2022/05/15 02:40:34;;;;;;;;;;;;;;;;;;5062888;28;1240;-65
2022/05/15 02:43:00;;;;;;;;;;;;;;;;;;5056709;28;1462;-65
2022/05/15 02:45:26;;;;;;;;;;;;;;;;;;5056646;28;1381;-65
2022/05/15 02:47:51;;;;;;;;;;;;;;;;;;5056860;28;1243;-66
2022/05/15 02:53:01;;;;;;;;;;;;;;;;;;5061728;28;1889;-66
2022/05/15 02:55:26;;;;;;;;;;;;;;;;;;5061621;28;1196;-66
2022/05/15 02:57:51;;;;;;;;;;;;;;;;;;5061229;28;1549;-66
2022/05/15 03:00:18;;;;;;;;;;;;;;;;;;5055430;28;1829;-66
2022/05/15 03:02:43;;;;;;;;;;;;;;;;;;5057464;28;1413;-66
2022/05/15 03:05:09;;;;;;;;;;;;;;;;;;5062458;28;1092;-66
2022/05/15 03:07:36;;;;;;;;;;;;;;;;;;5062640;28;1208;-66
2022/05/15 03:10:01;;;;;;;;;;;;;;;;;;5056359;28;1806;-65
2022/05/15 03:12:26;;;;;;;;;;;;;;;;;;5062603;28;1127;-66
2022/05/15 03:14:52;;;;;;;;;;;;;;;;;;5052494;28;1898;-66
2022/05/15 03:17:18;;;;;;;;;;;;;;;;;;5061924;28;1553;-65
2022/05/15 03:19:43;;;;;;;;;;;;;;;;;;5060291;28;1593;-65
2022/05/15 03:22:09;;;;;;;;;;;;;;;;;;5053143;28;1754;-66
2022/05/15 03:24:34;;;;;;;;;;;;;;;;;;5058781;28;1501;-66
2022/05/15 03:27:00;;;;;;;;;;;;;;;;;;5060930;28;1473;-66
2022/05/15 03:29:26;;;;;;;;;;;;;;;;;;5060533;28;1503;-65
2022/05/15 03:31:51;;;;;;;;;;;;;;;;;;5052577;28;1426;-66
2022/05/15 03:34:16;;;;;;;;;;;;;;;;;;5058799;28;1889;-66
2022/05/15 03:36:43;;;;;;;;;;;;;;;;;;5061863;28;1235;-65
2022/05/15 03:39:08;;;;;;;;;;;;;;;;;;5061945;28;1251;-65
2022/05/15 03:41:34;;;;;;;;;;;;;;;;;;5059987;28;1600;-66
2022/05/15 03:43:59;;;;;;;;;;;;;;;;;;5060056;28;1437;-65
2022/05/15 03:46:24;;;;;;;;;;;;;;;;;;5061570;28;1211;-65
2022/05/15 03:48:50;;;;;;;;;;;;;;;;;;5061568;28;1537;-66
2022/05/15 03:51:16;;;;;;;;;;;;;;;;;;5056344;28;1489;-66
2022/05/15 03:53:41;;;;;;;;;;;;;;;;;;5058713;28;2342;-66
2022/05/15 03:56:06;;;;;;;;;;;;;;;;;;5060048;28;1762;-65
2022/05/15 03:58:34;;;;;;;;;;;;;;;;;;5059649;28;1445;-65
2022/05/15 04:01:00;;;;;;;;;;;;;;;;;;5058394;28;1464;-66
2022/05/15 04:03:25;;;;;;;;;;;;;;;;;;5060786;28;1484;-65
2022/05/15 04:05:50;;;;;;;;;;;;;;;;;;5060899;28;1542;-65
2022/05/15 04:08:15;;;;;;;;;;;;;;;;;;5055906;28;1774;-66
2022/05/15 04:10:41;;;;;;;;;;;;;;;;;;5050418;28;1425;-65
2022/05/15 04:13:06;;;;;;;;;;;;;;;;;;5048951;28;1906;-65
2022/05/15 04:15:32;;;;;;;;;;;;;;;;;;5066269;28;1476;-65
2022/05/15 04:17:57;;;;;;;;;;;;;;;;;;5054962;28;1560;-65
2022/05/15 04:20:23;;;;;;;;;;;;;;;;;;5061488;28;1015;-65
2022/05/15 04:22:49;;;;;;;;;;;;;;;;;;5059871;28;1710;-65
2022/05/15 04:25:14;;;;;;;;;;;;;;;;;;5055399;28;1500;-65
2022/05/15 04:27:40;;;;;;;;;;;;;;;;;;5059383;28;1473;-66
2022/05/15 04:30:06;;;;;;;;;;;;;;;;;;5060815;28;1251;-65
2022/05/15 04:32:31;;;;;;;;;;;;;;;;;;5055865;28;1474;-65
2022/05/15 04:34:57;;;;;;;;;;;;;;;;;;5061104;28;1894;-65
2022/05/15 04:37:22;;;;;;;;;;;;;;;;;;5061067;28;1525;-65
2022/05/15 04:39:47;;;;;;;;;;;;;;;;;;5061136;28;1263;-65
2022/05/15 04:42:12;;;;;;;;;;;;;;;;;;5055966;28;1778;-65
2022/05/15 04:44:38;;;;;;;;;;;;;;;;;;5060640;28;1474;-65
2022/05/15 04:47:03;;;;;;;;;;;;;;;;;;5056038;28;1789;-65
2022/05/15 04:49:28;;;;;;;;;;;;;;;;;;5060544;28;1184;-65
2022/05/15 04:51:53;;;;;;;;;;;;;;;;;;5060756;28;1454;-66
2022/05/15 04:54:18;;;;;;;;;;;;;;;;;;5057356;28;1898;-66
2022/05/15 04:56:44;;;;;;;;;;;;;;;;;;5050352;28;1425;-66
2022/05/15 04:59:09;;;;;;;;;;;;;;;;;;5056052;28;1429;-66
2022/05/15 05:01:34;;;;;;;;;;;;;;;;;;5058284;28;1612;-66
2022/05/15 05:03:59;;;;;;;;;;;;;;;;;;5056856;28;1671;-65
2022/05/15 05:06:25;;;;;;;;;;;;;;;;;;5056398;28;1492;-65
2022/05/15 05:08:51;;;;;;;;;;;;;;;;;;5058299;28;1425;-65
2022/05/15 05:11:17;;;;;;;;;;;;;;;;;;5054105;28;1454;-65
2022/05/15 05:13:42;;;;;;;;;;;;;;;;;;5057818;28;1949;-65
2022/05/15 05:16:07;;;;;;;;;;;;;;;;;;5054453;28;1417;-66
2022/05/15 05:18:32;;;;;;;;;;;;;;;;;;5057273;28;1361;-66
2022/05/15 05:20:57;;;;;;;;;;;;;;;;;;5061654;28;1203;-65
2022/05/15 05:23:23;;;;;;;;;;;;;;;;;;5056653;28;1554;-65
2022/05/15 05:25:48;;;;;;;;;;;;;;;;;;5057805;28;1625;-65
2022/05/15 05:28:14;;;;;;;;;;;;;;;;;;5054607;28;1492;-65
2022/05/15 05:30:39;;;;;;;;;;;;;;;;;;5055773;28;1510;-65
2022/05/15 05:33:05;;;;;;;;;;;;;;;;;;5053985;28;1914;-65
2022/05/15 05:35:30;;;;;;;;;;;;;;;;;;5056790;28;1508;-65
2022/05/15 05:37:55;;;;;;;;;;;;;;;;;;5054602;28;1457;-66
2022/05/15 05:40:21;;;;;;;;;;;;;;;;;;5054875;28;2008;-66
2022/05/15 05:42:46;;;;;;;;;;;;;;;;;;5059325;28;1247;-65
2022/05/15 05:45:12;;;;;;;;;;;;;;;;;;5054604;28;1473;-65
2022/05/15 05:47:38;;;;;;;;;;;;;;;;;;5058442;28;1394;-65
2022/05/15 05:50:04;;;;;;;;;;;;;;;;;;5058461;28;1192;-66
2022/05/15 05:52:29;;;;;;;;;;;;;;;;;;5059836;28;1171;-65
2022/05/15 05:54:54;;;;;;;;;;;;;;;;;;5054377;28;2239;-66
2022/05/15 05:57:20;;;;;;;;;;;;;;;;;;5057031;28;1805;-66
2022/05/15 05:59:45;;;;;;;;;;;;;;;;;;5052558;28;1398;-65
2022/05/15 06:02:10;;;;;;;;;;;;;;;;;;5057180;28;1421;-66
2022/05/15 06:04:39;;;;;;;;;;;;;;;;;;5057761;28;1310;-66
2022/05/15 06:07:04;;;;;;;;;;;;;;;;;;5058470;28;1421;-66
2022/05/15 06:09:29;;;;;;;;;;;;;;;;;;5056547;28;1470;-66
2022/05/15 06:11:55;;;;;;;;;;;;;;;;;;5054704;28;1540;-66
2022/05/15 06:14:20;;;;;;;;;;;;;;;;;;5062580;28;1953;-65
2022/05/15 06:16:45;;;;;;;;;;;;;;;;;;5061912;28;1469;-66
2022/05/15 06:19:10;;;;;;;;;;;;;;;;;;5059120;28;1593;-66
2022/05/15 06:21:35;;;;;;;;;;;;;;;;;;5058760;28;1398;-68
2022/05/15 06:24:00;;;;;;;;;;;;;;;;;;5060815;28;1441;-68
2022/05/15 06:26:26;;;;;;;;;;;;;;;;;;5058714;28;1484;-67
2022/05/15 06:28:51;;;;;;;;;;;;;;;;;;5053957;28;2299;-68
2022/05/15 06:31:16;;;;;;;;;;;;;;;;;;5057100;28;1528;-67
2022/05/15 06:33:41;;;;;;;;;;;;;;;;;;5058662;28;1947;-67
2022/05/15 06:36:06;;;;;;;;;;;;;;;;;;5059425;28;1529;-67
2022/05/15 06:38:32;;;;;;;;;;;;;;;;;;5061361;28;1587;-66
2022/05/15 06:40:57;;;;;;;;;;;;;;;;;;5057849;28;1275;-67
2022/05/15 06:43:22;;;;;;;;;;;;;;;;;;5062770;28;1258;-66
2022/05/15 06:45:48;;;;;;;;;;;;;;;;;;5059081;28;1544;-66
2022/05/15 06:48:13;;;;;;;;;;;;;;;;;;5062051;28;1346;-66
2022/05/15 06:50:39;;;;;;;;;;;;;;;;;;5057435;28;1449;-66
2022/05/15 06:53:04;;;;;;;;;;;;;;;;;;5062207;28;1976;-66
2022/05/15 06:55:29;;;;;;;;;;;;;;;;;;5057126;28;1766;-66
2022/05/15 06:57:56;;;;;;;;;;;;;;;;;;5059477;28;1520;-66
2022/05/15 07:00:25;;;;;;;;;;;;;;;;;;5057098;28;1956;-66
2022/05/15 07:02:50;;;;;;;;;;;;;;;;;;5053918;28;1386;-66
2022/05/15 07:05:17;;;;;;;;;;;;;;;;;;5057429;28;1421;-66
2022/05/15 07:07:44;;;;;;;;;;;;;;;;;;5061374;28;1382;-65
2022/05/15 07:10:09;;;;;;;;;;;;;;;;;;5061578;28;1627;-66
2022/05/15 07:12:35;;;;;;;;;;;;;;;;;;5060407;28;1561;-66
2022/05/15 07:15:01;;;;;;;;;;;;;;;;;;5056792;28;1898;-67
2022/05/15 07:17:26;;;;;;;;;;;;;;;;;;5059956;28;2023;-66
2022/05/15 07:19:52;;;;;;;;;;;;;;;;;;5067645;28;1742;-67
2022/05/15 07:22:17;;;;;;;;;;;;;;;;;;5057374;28;1407;-66
2022/05/15 07:24:42;;;;;;;;;;;;;;;;;;5042065;28;1036;-66
2022/05/15 07:27:08;;;;;;;;;;;;;;;;;;5042273;28;1545;-66
2022/05/15 07:29:36;;;;;;;;;;;;;;;;;;5057871;28;1717;-66
2022/05/15 07:32:01;;;;;;;;;;;;;;;;;;5055596;28;1539;-66
2022/05/15 07:34:27;;;;;;;;;;;;;;;;;;5060969;28;1901;-66
2022/05/15 07:36:52;;;;;;;;;;;;;;;;;;5068568;28;2266;-66
2022/05/15 07:39:19;;;;;;;;;;;;;;;;;;5053428;28;1431;-67
2022/05/15 07:41:44;;;;;;;;;;;;;;;;;;5060389;28;1730;-66
2022/05/15 07:44:09;;;;;;;;;;;;;;;;;;5052671;28;1628;-67
2022/05/15 07:46:34;;;;;;;;;;;;;;;;;;5042284;28;1447;-66
2022/05/15 07:48:59;;;;;;;;;;;;;;;;;;5049302;28;1490;-66
2022/05/15 07:51:25;;;;;;;;;;;;;;;;;;5060834;28;1122;-66
2022/05/15 07:53:50;;;;;;;;;;;;;;;;;;5061555;28;1962;-68
2022/05/15 07:56:15;;;;;;;;;;;;;;;;;;5060338;28;1600;-67
2022/05/15 07:58:41;;;;;;;;;;;;;;;;;;5061308;28;1673;-67
2022/05/15 08:01:06;;;;;;;;;;;;;;;;;;5061343;28;1484;-66
2022/05/15 08:03:39;;;;;;;;;;;;;;;;;;5060922;28;1576;-66
2022/05/15 08:08:49;;;;;;;;;;;;;;;;;;5041826;28;1240;-67
2022/05/15 08:11:14;;;;;;;;;;;;;;;;;;5052815;28;1589;-66
2022/05/15 08:13:39;;;;;;;;;;;;;;;;;;5061414;28;1902;-66
2022/05/15 08:16:05;;;;;;;;;;;;;;;;;;5061543;28;901;-66
2022/05/15 08:23:59;;;;;;;;;;;;;;;;;;5055746;28;1287;-67
2022/05/15 08:26:25;;;;;;;;;;;;;;;;;;5060492;28;1252;-68
2022/05/15 08:28:50;;;;;;;;;;;;;;;;;;5060450;28;1322;-68
2022/05/15 08:31:17;;;;;;;;;;;;;;;;;;5057662;28;1959;-68
2022/05/15 08:33:43;;;;;;;;;;;;;;;;;;5059659;28;1902;-68
2022/05/15 08:36:08;;;;;;;;;;;;;;;;;;5058722;28;1263;-67
2022/05/15 08:38:34;;;;;;;;;;;;;;;;;;5060332;28;1419;-66
2022/05/15 08:41:08;;;;;;;;;;;;;;;;;;5060618;28;1274;-67
2022/05/15 08:43:41;;;;;;;;;;;;;;;;;;5060152;28;1388;-68
2022/05/15 08:46:16;;;;;;;;;;;;;;;;;;5058276;28;1234;-67
2022/05/15 08:48:42;;;;;;;;;;;;;;;;;;5059478;28;1725;-67
2022/05/15 08:51:10;;;;;;;;;;;;;;;;;;5060428;28;1369;-67
2022/05/15 08:53:37;;;;;;;;;;;;;;;;;;5057837;28;1965;-67
2022/05/15 08:56:06;;;;;;;;;;;;;;;;;;5060342;28;1311;-67
2022/05/15 08:58:51;;;;;;;;;;;;;;;;;;5056006;28;1349;-67
2022/05/15 09:01:19;;;;;;;;;;;;;;;;;;5069560;28;1499;-68
2022/05/15 09:03:44;;;;;;;;;;;;;;;;;;5057945;28;1936;-68
2022/05/15 09:06:28;;;;;;;;;;;;;;;;;;5057749;28;2298;-68
2022/05/15 09:08:57;;;;;;;;;;;;;;;;;;5059699;28;1349;-67
2022/05/15 09:11:32;;;;;;;;;;;;;;;;;;5058771;28;1279;-67
2022/05/15 09:14:02;;;;;;;;;;;;;;;;;;5058984;28;1909;-67
2022/05/15 09:16:28;;;;;;;;;;;;;;;;;;5053176;28;1585;-68
2022/05/15 09:19:06;;;;;;;;;;;;;;;;;;5059182;28;1345;-67
2022/05/15 09:21:31;;;;;;;;;;;;;;;;;;5053682;28;1346;-68
2022/05/15 09:24:01;;;;;;;;;;;;;;;;;;5059110;28;1307;-69
2022/05/15 09:26:28;;;;;;;;;;;;;;;;;;5060005;28;1159;-68
2022/05/15 09:28:54;;;;;;;;;;;;;;;;;;5057377;28;1267;-68
2022/05/15 09:31:23;;;;;;;;;;;;;;;;;;5060082;28;1254;-67
2022/05/15 09:33:51;;;;;;;;;;;;;;;;;;5059378;28;1889;-67
2022/05/15 09:36:28;;;;;;;;;;;;;;;;;;5057545;28;1273;-67
2022/05/15 09:39:12;;;;;;;;;;;;;;;;;;5058310;28;1441;-66
2022/05/15 09:44:26;;;;;;;;;;;;;;;;;;5059581;28;1428;-67
2022/05/15 09:47:02;;;;;;;;;;;;;;;;;;5060791;28;1570;-67
2022/05/15 09:49:31;;;;;;;;;;;;;;;;;;5058428;28;1318;-68
2022/05/15 09:51:58;;;;;;;;;;;;;;;;;;5062620;28;1243;-68
2022/05/15 09:54:43;;;;;;;;;;;;;;;;;;5061766;28;1947;-68
2022/05/15 09:57:08;;;;;;;;;;;;;;;;;;5061947;28;1139;-69
2022/05/15 09:59:34;;;;;;;;;;;;;;;;;;5061681;28;1263;-66
2022/05/15 10:02:00;;;;;;;;;;;;;;;;;;5060085;28;1719;-67
2022/05/15 10:04:26;;;;;;;;;;;;;;;;;;5062703;28;1270;-68
2022/05/15 10:06:59;;;;;;;;;;;;;;;;;;5061612;28;1327;-68
2022/05/15 10:09:31;;;;;;;;;;;;;;;;;;5059067;28;1350;-67
2022/05/15 10:12:05;;;;;;;;;;;;;;;;;;5061660;28;1485;-68
2022/05/15 10:14:34;;;;;;;;;;;;;;;;;;5060193;28;1894;-69
2022/05/15 10:16:59;;;;;;;;;;;;;;;;;;5062957;28;1258;-68
2022/05/15 10:19:29;;;;;;;;;;;;;;;;;;5062362;28;1351;-69
2022/05/15 10:22:03;;;;;;;;;;;;;;;;;;5057215;28;1263;-69
2022/05/15 10:24:31;;;;;;;;;;;;;;;;;;5061216;28;1358;-68
2022/05/15 10:27:20;;;;;;;;;;;;;;;;;;5058085;28;1182;-68
2022/05/15 10:29:49;;;;;;;;;;;;;;;;;;5043276;28;1554;-68
2022/05/15 10:32:20;;;;;;;;;;;;;;;;;;5057715;28;2025;-68
2022/05/15 10:34:45;;;;;;;;;;;;;;;;;;5058379;28;1894;-69
2022/05/15 10:37:25;;;;;;;;;;;;;;;;;;5059828;28;1223;-69
2022/05/15 10:40:01;;;;;;;;;;;;;;;;;;5062066;28;1509;-69
2022/05/15 10:42:45;;;;;;;;;;;;;;;;;;5063140;28;1334;-68
2022/05/15 10:45:25;;;;;;;;;;;;;;;;;;5063088;28;850;-69
2022/05/15 10:48:03;;;;;;;;;;;;;;;;;;5063718;28;1223;-69
2022/05/15 10:50:47;;;;;;;;;;;;;;;;;;5062442;28;1545;-69
2022/05/15 10:58:54;;;;;;;;;;;;;;;;;;5060809;28;1287;-68
2022/05/15 11:01:33;;;;;;;;;;;;;;;;;;5061332;28;1588;-67
2022/05/15 11:04:10;;;;;;;;;;;;;;;;;;5062842;28;1107;-67
2022/05/15 11:06:47;;;;;;;;;;;;;;;;;;5062567;28;1661;-67
2022/05/15 11:09:35;;;;;;;;;;;;;;;;;;5062068;28;1450;-67
2022/05/15 11:12:14;;;;;;;;;;;;;;;;;;5054445;28;1623;-67
2022/05/15 11:14:50;;;;;;;;;;;;;;;;;;5055288;28;1957;-67
2022/05/15 11:17:21;;;;;;;;;;;;;;;;;;5062254;28;914;-67
2022/05/15 11:19:46;;;;;;;;;;;;;;;;;;5062748;28;1446;-67
2022/05/15 11:22:31;;;;;;;;;;;;;;;;;;5045752;28;1603;-66
2022/05/15 11:24:57;;;;;;;;;;;;;;;;;;5062341;28;1139;-66
2022/05/15 11:27:41;;;;;;;;;;;;;;;;;;5062028;28;1477;-67
2022/05/15 11:30:11;;;;;;;;;;;;;;;;;;5062432;28;866;-66
2022/05/15 11:32:55;;;;;;;;;;;;;;;;;;5057362;28;1552;-67
2022/05/15 11:35:21;;;;;;;;;;;;;;;;;;5058099;28;1949;-67
2022/05/15 11:37:49;;;;;;;;;;;;;;;;;;5061863;28;1341;-66
2022/05/15 11:40:33;;;;;;;;;;;;;;;;;;5062083;28;858;-66
2022/05/15 11:42:59;;;;;;;;;;;;;;;;;;5050313;28;1451;-67
2022/05/15 11:45:28;;;;;;;;;;;;;;;;;;5061856;28;1092;-67
2022/05/15 11:48:11;;;;;;;;;;;;;;;;;;5061641;28;1214;-66
2022/05/15 11:50:57;;;;;;;;;;;;;;;;;;5060622;28;1521;-67
2022/05/15 11:53:38;;;;;;;;;;;;;;;;;;5060325;28;1955;-67
2022/05/15 11:56:21;;;;;;;;;;;;;;;;;;5059901;28;1631;-66
2022/05/15 11:58:57;;;;;;;;;;;;;;;;;;5059801;28;1322;-66
2022/05/15 12:01:31;;;;;;;;;;;;;;;;;;5057997;28;1325;-67
2022/05/15 12:04:01;;;;;;;;;;;;;;;;;;5057310;28;1254;-67
2022/05/15 12:06:44;;;;;;;;;;;;;;;;;;5061090;28;1155;-66
2022/05/15 12:09:15;;;;;;;;;;;;;;;;;;5060521;28;1255;-66
2022/05/15 12:11:40;;;;;;;;;;;;;;;;;;5056296;28;1841;-66
2022/05/15 12:14:21;;;;;;;;;;;;;;;;;;5069708;28;1890;-66
2022/05/15 12:16:53;;;;;;;;;;;;;;;;;;5068585;28;1592;-66
2022/05/15 12:19:28;;;;;;;;;;;;;;;;;;5066004;28;1412;-65
2022/05/15 12:21:55;;;;;;;;;;;;;;;;;;5062323;28;1353;-65
2022/05/15 12:24:33;;;;;;;;;;;;;;;;;;5071547;28;1257;-65
2022/05/15 12:26:58;;;;;;;;;;;;;;;;;;5066855;28;1114;-66
2022/05/15 12:29:24;;;;;;;;;;;;;;;;;;5066405;28;1517;-66
2022/05/15 12:31:49;;;;;;;;;;;;;;;;;;5061461;28;1227;-65
2022/05/15 12:34:17;;;;;;;;;;;;;;;;;;5063456;28;1893;-66
2022/05/15 12:36:46;;;;;;;;;;;;;;;;;;5061604;28;1306;-65
2022/05/15 12:39:14;;;;;;;;;;;;;;;;;;5064325;28;1342;-66
2022/05/15 12:41:42;;;;;;;;;;;;;;;;;;5060442;28;1319;-66
2022/05/15 12:44:10;;;;;;;;;;;;;;;;;;5058196;28;1209;-65
2022/05/15 12:46:39;;;;;;;;;;;;;;;;;;5060632;28;1380;-65
2022/05/15 12:49:06;;;;;;;;;;;;;;;;;;5060053;28;1259;-65
2022/05/15 12:51:35;;;;;;;;;;;;;;;;;;5060686;28;1246;-65
2022/05/15 12:54:02;;;;;;;;;;;;;;;;;;5057969;28;1889;-65
2022/05/15 12:56:35;;;;;;;;;;;;;;;;;;5057296;28;1311;-65
2022/05/15 12:59:08;;;;;;;;;;;;;;;;;;5058203;28;1334;-65
2022/05/15 13:01:33;;;;;;;;;;;;;;;;;;5060314;28;1277;-65
2022/05/15 13:03:59;;;;;;;;;;;;;;;;;;5054785;28;1423;-65
2022/05/15 13:06:33;;;;;;;;;;;;;;;;;;5059842;28;1588;-66
2022/05/15 13:09:00;;;;;;;;;;;;;;;;;;5057694;28;1267;-65
2022/05/15 13:11:33;;;;;;;;;;;;;;;;;;5058226;28;1363;-65
2022/05/15 13:13:58;;;;;;;;;;;;;;;;;;5056379;28;2230;-65
2022/05/15 13:16:27;;;;;;;;;;;;;;;;;;5060423;28;1138;-66
2022/05/15 13:18:53;;;;;;;;;;;;;;;;;;5059736;28;1338;-64
2022/05/15 13:21:21;;;;;;;;;;;;;;;;;;5058416;28;1632;-67
2022/05/15 13:23:47;;;;;;;;;;;;;;;;;;5058782;28;1215;-67
2022/05/15 13:26:17;;;;;;;;;;;;;;;;;;5060268;28;1178;-65
2022/05/15 13:28:42;;;;;;;;;;;;;;;;;;5059942;28;1442;-65
2022/05/15 13:31:11;;;;;;;;;;;;;;;;;;5054202;28;1521;-65
2022/05/15 13:33:36;;;;;;;;;;;;;;;;;;5050732;28;1953;-66
2022/05/15 13:36:02;;;;;;;;;;;;;;;;;;5059158;28;1445;-67
2022/05/15 13:38:29;;;;;;;;;;;;;;;;;;5057721;28;1401;-68
2022/05/15 13:43:58;;;;;;;;;;;;;;;;;;5057168;28;1251;-67
2022/05/15 13:46:27;;;;;;;;;;;;;;;;;;5059700;28;1230;-66
2022/05/15 13:48:52;;;;;;;;;;;;;;;;;;5059468;28;1299;-66
2022/05/15 13:51:36;;;;;;;;;;;;;;;;;;5055407;28;1948;-66
2022/05/15 13:54:07;;;;;;;;;;;;;;;;;;5067211;28;1975;-67
2022/05/15 13:56:32;;;;;;;;;;;;;;;;;;5062087;28;1309;-67
2022/05/15 13:58:57;;;;;;;;;;;;;;;;;;5061250;28;1992;-67
2022/05/15 14:01:30;;;;;;;;;;;;;;;;;;5064466;28;1333;-67
2022/05/15 14:03:56;;;;;;;;;;;;;;;;;;5062559;28;1545;-67
2022/05/15 14:06:21;;;;;;;;;;;;;;;;;;5063545;28;1284;-67
2022/05/15 14:08:59;;;;;;;;;;;;;;;;;;5069915;28;1294;-67
2022/05/15 14:11:24;;;;;;;;;;;;;;;;;;5057865;28;1251;-67
2022/05/15 14:13:51;;;;;;;;;;;;;;;;;;5066931;28;1906;-67
2022/05/15 14:16:19;;;;;;;;;;;;;;;;;;5074084;28;1437;-67
2022/05/15 14:18:44;;;;;;;;;;;;;;;;;;5057067;28;1505;-67
2022/05/15 14:21:14;;;;;;;;;;;;;;;;;;5059119;28;1557;-67
2022/05/15 14:23:40;;;;;;;;;;;;;;;;;;5059822;28;1474;-67
2022/05/15 14:26:06;;;;;;;;;;;;;;;;;;5058461;28;1521;-67
2022/05/15 14:28:32;;;;;;;;;;;;;;;;;;5058476;28;1426;-67
2022/05/15 14:30:57;;;;;;;;;;;;;;;;;;5055370;28;1568;-68
2022/05/15 14:33:24;;;;;;;;;;;;;;;;;;5061354;28;1906;-68
2022/05/15 14:35:51;;;;;;;;;;;;;;;;;;5076924;28;1524;-68
2022/05/15 14:38:17;;;;;;;;;;;;;;;;;;5083138;28;1137;-67
2022/05/15 14:40:42;;;;;;;;;;;;;;;;;;5060120;28;1612;-66
2022/05/15 14:43:07;;;;;;;;;;;;;;;;;;5062498;28;1208;-66
2022/05/15 14:45:37;;;;;;;;;;;;;;;;;;5059613;28;1121;-67
2022/05/15 14:48:04;;;;;;;;;;;;;;;;;;5055874;28;1601;-67
2022/05/15 14:50:31;;;;;;;;;;;;;;;;;;5060333;28;1238;-67
2022/05/15 14:52:57;;;;;;;;;;;;;;;;;;5061330;28;1187;-67
2022/05/15 14:58:09;;;;;;;;;;;;;;;;;;5061191;28;1259;-67
2022/05/15 15:00:34;;;;;;;;;;;;;;;;;;5057582;28;1317;-67
2022/05/15 15:02:59;;;;;;;;;;;;;;;;;;5060436;28;1276;-68
2022/05/15 15:05:25;;;;;;;;;;;;;;;;;;5062282;28;1155;-67
2022/05/15 15:07:50;;;;;;;;;;;;;;;;;;5061906;28;1292;-66
2022/05/15 15:10:15;;;;;;;;;;;;;;;;;;5059170;28;1604;-66
2022/05/15 15:12:43;;;;;;;;;;;;;;;;;;5061956;28;1297;-66
2022/05/15 15:15:08;;;;;;;;;;;;;;;;;;5061926;28;1914;-65
2022/05/15 15:17:34;;;;;;;;;;;;;;;;;;5061460;28;1259;-66
2022/05/15 15:19:59;;;;;;;;;;;;;;;;;;5060737;28;1267;-66
2022/05/15 15:22:24;;;;;;;;;;;;;;;;;;5059453;28;1282;-66
2022/05/15 15:24:49;;;;;;;;;;;;;;;;;;5061711;28;1343;-66
2022/05/15 15:27:15;;;;;;;;;;;;;;;;;;5062167;28;1052;-66
2022/05/15 15:29:40;;;;;;;;;;;;;;;;;;5060461;28;1284;-66
2022/05/15 15:32:05;;;;;;;;;;;;;;;;;;5060051;28;1402;-66
2022/05/15 15:34:32;;;;;;;;;;;;;;;;;;5061853;28;1937;-66
2022/05/15 15:39:41;;;;;;;;;;;;;;;;;;5056288;28;1327;-67
2022/05/15 15:42:07;;;;;;;;;;;;;;;;;;5059847;28;1629;-66
2022/05/15 15:44:36;;;;;;;;;;;;;;;;;;5060091;28;1423;-66
2022/05/15 15:47:01;;;;;;;;;;;;;;;;;;5061370;28;1175;-65
2022/05/15 15:49:27;;;;;;;;;;;;;;;;;;5058280;28;1342;-65
2022/05/15 15:51:53;;;;;;;;;;;;;;;;;;5061381;28;1400;-66
2022/05/15 15:54:19;;;;;;;;;;;;;;;;;;5061523;28;1957;-65
2022/05/15 15:56:45;;;;;;;;;;;;;;;;;;5061148;28;1222;-65
2022/05/15 15:59:10;;;;;;;;;;;;;;;;;;5055955;28;1346;-65
2022/05/15 16:01:37;;;;;;;;;;;;;;;;;;5061311;28;1254;-66
2022/05/15 16:04:03;;;;;;;;;;;;;;;;;;5057781;28;1522;-66
2022/05/15 16:06:28;;;;;;;;;;;;;;;;;;5061477;28;1446;-66
2022/05/15 16:08:54;;;;;;;;;;;;;;;;;;5059790;28;1423;-66
2022/05/15 16:11:20;;;;;;;;;;;;;;;;;;5061714;28;1140;-69
2022/05/15 16:13:45;;;;;;;;;;;;;;;;;;5061623;28;1965;-68
2022/05/15 16:16:10;;;;;;;;;;;;;;;;;;5055808;28;2298;-67
2022/05/15 16:18:36;;;;;;;;;;;;;;;;;;5067831;28;1653;-67
2022/05/15 16:21:04;;;;;;;;;;;;;;;;;;5067732;28;1767;-68
2022/05/15 16:23:30;;;;;;;;;;;;;;;;;;5058293;28;1287;-68
2022/05/15 16:25:57;;;;;;;;;;;;;;;;;;5062361;28;1586;-67
2022/05/15 16:28:23;;;;;;;;;;;;;;;;;;5064422;28;1259;-68
2022/05/15 16:30:49;;;;;;;;;;;;;;;;;;5056473;28;1514;-67
2022/05/15 16:33:14;;;;;;;;;;;;;;;;;;5060884;28;1882;-68
2022/05/15 16:35:39;;;;;;;;;;;;;;;;;;5061157;28;1443;-68
2022/05/15 16:38:05;;;;;;;;;;;;;;;;;;5059565;28;1576;-67
2022/05/15 16:40:30;;;;;;;;;;;;;;;;;;5060825;28;1334;-67
2022/05/15 16:42:55;;;;;;;;;;;;;;;;;;5061320;28;802;-67
2022/05/15 16:45:22;;;;;;;;;;;;;;;;;;5060833;28;1541;-67
2022/05/15 16:47:47;;;;;;;;;;;;;;;;;;5060887;28;1396;-68
2022/05/15 16:50:18;;;;;;;;;;;;;;;;;;5052279;28;1568;-67
2022/05/15 16:52:43;;;;;;;;;;;;;;;;;;5060597;28;1556;-66
2022/05/15 16:55:09;;;;;;;;;;;;;;;;;;5059157;28;1973;-66
2022/05/15 16:57:34;;;;;;;;;;;;;;;;;;5056363;28;1453;-66
2022/05/15 16:59:59;;;;;;;;;;;;;;;;;;5052290;28;1525;-66
2022/05/15 17:02:24;;;;;;;;;;;;;;;;;;5059707;28;1708;-64
2022/05/15 17:04:49;;;;;;;;;;;;;;;;;;5056457;28;1617;-65
2022/05/15 17:07:14;;;;;;;;;;;;;;;;;;5057772;28;1267;-65
2022/05/15 17:09:40;;;;;;;;;;;;;;;;;;5056961;28;1402;-65
2022/05/15 17:12:05;;;;;;;;;;;;;;;;;;5059860;28;1266;-66
2022/05/15 17:14:32;;;;;;;;;;;;;;;;;;5060114;28;1906;-65
2022/05/15 17:16:58;;;;;;;;;;;;;;;;;;5060148;28;1219;-65
2022/05/15 17:19:26;;;;;;;;;;;;;;;;;;5058430;28;1350;-65
2022/05/15 17:21:52;;;;;;;;;;;;;;;;;;5058364;28;1342;-66
2022/05/15 17:24:29;;;;;;;;;;;;;;;;;;5059757;28;1230;-66
2022/05/15 17:26:56;;;;;;;;;;;;;;;;;;5057624;28;1191;-67
2022/05/15 17:34:49;;;;;;;;;;;;;;;;;;5059593;28;1961;-66
2022/05/15 17:37:14;;;;;;;;;;;;;;;;;;5059775;28;1103;-65
2022/05/15 17:39:39;;;;;;;;;;;;;;;;;;5053672;28;1605;-65